AirNav   Everest Fuels
 
 1266 users online  

OH64 Hummel Airport
Germantown, Ohio, USA

GOING TO GERMANTOWN?


FAA INFORMATION EFFECTIVE 25 MARCH 2021

Location

FAA Identifier: OH64
Lat/Long: 39-35-35.2080N 084-20-37.7930W
39-35.586800N 084-20.629883W
39.5931133,-84.3438314
(estimated)
Elevation: 695 ft. / 212 m (estimated)
Variation: 04W (1985)
From city: 3 miles SE of GERMANTOWN, OH
Time zone: UTC -4 (UTC -5 during Standard Time)
Zip code: 45327

Airport Operations

Airport use: Private use. Permission required prior to landing
Activation date: 09/1971
Control tower: no
ARTCC: INDIANAPOLIS CENTER
FSS: DAYTON FLIGHT SERVICE STATION
Attendance: UNATNDD
Wind indicator: yes
Segmented circle: no

Airport Communications

WX AWOS-3 at MWO (4 nm SW): 120.025 (513-422-3505)
WX ASOS at MGY (6 nm E): 118.375 (937-885-2171)
WX AWOS-3 at I68 (9 nm SE): 120.55 (513-934-5500)
WX ASOS at HAO (16 nm SW): 121.425 (513-863-6137)
WX AWOS-3 at I19 (17 nm E): 118.525 (937-372-4668)
WX ASOS at DAY (19 nm N): PHONE 937-415-6819

Nearby radio navigation aids

VOR radial/distance  VOR name  Freq  Var
DQNr175/25.5DAYTON VOR/DME114.5001W
MXQr295/27.0MIDWEST VOR/DME112.9004W
CVGr030/38.4CINCINNATI VORTAC117.3004W

 
NDB name  Hdg/Dist  Freq  Var  ID
ONIDA318/1.322304WMW -- .--
HOOK FIELD044/7.423904WHKF .... -.- ..-.
CLARK COUNTY241/31.034104WCCJ -.-. -.-. .---
SPORTYS353/31.624504WPWF .--. .-- ..-.

Airport Services

Airframe service: NONE
Powerplant service: NONE

Runway Information

Runway 12/30

Dimensions: 1600 x 150 ft. / 488 x 46 m
Surface: turf
RUNWAY 12  RUNWAY 30
Traffic pattern: leftleft
Obstructions: nonepline trees
BOTH 25FT HIGH AT RWY END.

Runway 10/28

Dimensions: 1500 x 150 ft. / 457 x 46 m
Surface: turf
RUNWAY 10  RUNWAY 28
Traffic pattern: leftleft

Airport Ownership and Management from official FAA records

Ownership: Privately-owned
Owner: RICHARD R HUMMEL
10491 CARLISLE PIKE
GERMANTOWN, OH 45327-8735
Phone 513-855-2697
Manager: RICHARD R HUMMEL
10491 CARLISLE PIKE
GERMANTOWN, OH 45327-8735
Phone 513-855-2697

Airport Operational Statistics

Aircraft based on the field: 3
Single engine airplanes: 3
    

Additional Remarks

FOR CD CTC COLUMBUS APCH AT 614-338-8537.

Instrument Procedures

There are no published instrument procedures at OH64.

Some nearby airports with instrument procedures:

KMWO - Middletown Regional Airport/Hook Field (4 nm SW)
KMGY - Dayton-Wright Brothers Airport (6 nm E)
I68 - Warren County Airport/John Lane Field (9 nm SE)
KHAO - Butler County Regional Airport/Hogan Field (16 nm SW)
I19 - Greene County-Lewis A Jackson Regional Airport (17 nm E)
3I7 - Dayton-Phillipsburg Airport (19 nm N)
KDAY - James M Cox Dayton International Airport (19 nm N)
KFFO - Wright-Patterson Air Force Base (20 nm NE)
 
Loc | Ops | Rwys | IFR | FBO | Links
Com | Nav | Svcs | Stats | Notes
Area around OH64 (Hummel Airport)
 
Road maps at: MapQuest Bing Google
 
Aerial photo
No photo
 
Sectional chart

 
Airport distance calculator
Flying to Hummel Airport? Find the distance to fly.

From to OH64

Sunrise and sunset
Times for 17-Apr-2021
 Local
(UTC-4)
 Zulu
(UTC)
Morning civil twilight06:3010:30
Sunrise06:5810:58
Sunset20:1600:16
Evening civil twilight20:4400:44

Current date and time
Zulu (UTC)  17-Apr-2021 14:41:16
Local (UTC-4)  17-Apr-2021 10:41:16
 
METAR
KMWO 
4nm SW 
171415Z AUTO 00000KT 10SM SCT120 09/06 A2992 RMK AO2 T00920056
KMGY 
5nm E 
171353Z AUTO 00000KT 10SM FEW120 09/04 A2989 RMK AO2 SLP122 T00940044
KI68 
9nm SE 
171415Z AUTO 00000KT 10SM CLR 09/08 A2990 RMK AO1 T00940083
KHAO 
16nm SW 
171353Z AUTO 00000KT 10SM OVC095 09/04 A2992 RMK AO2 SLP133 T00890044
KDAY 
19nm N 
171356Z 01003KT 10SM BKN140 OVC160 08/02 A2991 RMK AO2 SLP129 T00830022
KFFO 
20nm NE 
171356Z AUTO 00000KT 10SM BKN140 08/04 A2990 RMK AO2 SLP130 T00760040
TAF
KDAY 
19nm N 
171125Z 1712/1812 00000KT P6SM BKN200 FM171500 32003KT P6SM BKN100 FM171700 31006KT P6SM OVC070 FM180000 30004KT P6SM SCT070
KFFO 
20nm NE 
171100Z 1711/1817 VRB06KT 9999 FEW060 SCT110 BKN250 QNH2987INS TEMPO 1713/1715 VCSH BKN060 610609 BECMG 1716/1717 31012KT 9000 -SHRA BKN060 OVC110 610609 QNH2985INS BECMG 1719/1720 32009KT 9999 NSW SCT060 BKN110 OVC250 QNH2984INS BECMG 1803/1804 34006KT 9000 BR FEW060 SCT250 QNH2991INS BECMG 1814/1815 25009KT 9999 NSW SCT070 BKN250 QNH2988INS TX15/1719Z TN01/1811Z
NOTAMs
Click for the latest NOTAMs
NOTAMs are issued by the DoD/FAA and will open in a separate window not controlled by AirNav.

 

 
 

Would you like to see your business listed on this page?

 If your business provides an interesting product or service to pilots, flight crews, aircraft, or users of the Hummel Airport, you should consider listing it here.  To start the listing process, click on the button below
 
Add a business
 

Other Pages about Hummel Airport

Update a link
 
Copyright © AirNav, LLC. All rights reserved. Privacy Policy  Contact